KSTP/STP METAR and TAF weather

Enter ICAO airport designator
Station Type Date Time Source
KSTP METAR 2020/04/02 02:53 UTC NOAA

KSTP 020253Z AUTO 12006KT 10SM OVC110 10/02 A3001 RMK AO2 SLP163 T01000022 53010


Station Type Date Time Source
KSTP Decoded METAR 2020/04/02 02:53 UTC NOAA

DOWNTOWN HOLMAN FIELD, MN, United States (KSTP) 44-56N 093-03W 219M
Apr 01, 2020 - 10:53 PM EDT / 2020.04.02 0253 UTC
Wind: from the ESE (120 degrees) at 7 MPH (6 KT):0
Visibility: 10 mile(s):0
Sky conditions: overcast
Temperature: 50.0 F (10.0 C)
Dew Point: 36.0 F (2.2 C)
Relative Humidity: 58%
Pressure (altimeter): 30.01 in. Hg (1016 hPa)
Pressure tendency: 0.03 inches (1.0 hPa) higher than three hours ago
ob: KSTP 020253Z AUTO 12006KT 10SM OVC110 10/02 A3001 RMK AO2 SLP163 T01000022 53010
cycle: 3

Station Type Date Time Source
KSTP TAF 2018/02/05 20:57 UTC NOAA

TAF
AMD KSTP 051957Z 0520/0618 25007KT P6SM VCSH BKN020 OVC050
TEMPO 0520/0522 SCT020
FM052200 26006KT P6SM FEW020 BKN110
FM060100 31006KT P6SM FEW100
AMD NOT SKED

Example: see airport list